createdAt,value
2018-01-06T00:00:46.394Z,98906.92
2018-01-06T00:03:13.877Z,98903.06
2018-01-06T00:05:41.335Z,98902.76
2018-01-06T00:08:08.827Z,98906.59
2018-01-06T00:10:36.283Z,98903.29
2018-01-06T00:13:03.887Z,98894.40
2018-01-06T00:15:31.357Z,98891.70
2018-01-06T00:17:58.826Z,98886.73
2018-01-06T00:20:26.293Z,98891.36
2018-01-06T00:22:53.770Z,98892.80
2018-01-06T00:25:21.227Z,98891.61
2018-01-06T00:27:48.715Z,98894.20
2018-01-06T00:30:16.164Z,98900.70
2018-01-06T00:32:43.655Z,98902.09
2018-01-06T00:35:11.152Z,98902.14
2018-01-06T00:37:38.606Z,98906.80
2018-01-06T00:40:06.082Z,98912.90
2018-01-06T00:42:33.546Z,98910.37
2018-01-06T00:45:01.019Z,98910.44
2018-01-06T00:47:28.480Z,98916.50
2018-01-06T00:49:55.959Z,98912.14
2018-01-06T00:52:23.406Z,98919.33
2018-01-06T00:54:50.878Z,98913.66
2018-01-06T00:57:18.345Z,98911.70
2018-01-06T00:59:45.840Z,98920.61
2018-01-06T01:02:13.299Z,98918.23
2018-01-06T01:04:40.787Z,98913.77
2018-01-06T01:07:08.248Z,98910.79
2018-01-06T01:09:35.747Z,98922.00
2018-01-06T01:12:03.210Z,98918.91
2018-01-06T01:14:30.687Z,98920.22
2018-01-06T01:16:58.166Z,98923.89
2018-01-06T01:19:25.611Z,98931.77
2018-01-06T01:21:53.086Z,98930.08
2018-01-06T01:24:20.548Z,98932.91
2018-01-06T01:26:48.936Z,98943.78
2018-01-06T01:29:16.395Z,98941.94
2018-01-06T01:31:43.870Z,98943.91
2018-01-06T01:34:11.335Z,98942.91
2018-01-06T01:36:38.815Z,98939.03
2018-01-06T01:39:06.280Z,98939.64
2018-01-06T01:41:33.815Z,98952.72
2018-01-06T01:44:01.284Z,98956.95
2018-01-06T01:46:28.755Z,98958.68
2018-01-06T01:48:56.226Z,98962.30
2018-01-06T01:51:23.718Z,98958.44
2018-01-06T01:53:51.178Z,98954.84
2018-01-06T01:56:18.631Z,98949.27
2018-01-06T01:58:46.109Z,98941.31
2018-01-06T02:01:13.564Z,98944.84
2018-01-06T02:03:41.040Z,98940.03
2018-01-06T02:06:08.510Z,98941.67
2018-01-06T02:08:36.007Z,98944.84
2018-01-06T02:11:03.463Z,98951.41
2018-01-06T02:13:30.958Z,98947.93
2018-01-06T02:15:58.415Z,98947.63
2018-01-06T02:18:25.885Z,98954.85
2018-01-06T02:20:53.358Z,98954.97
2018-01-06T02:23:20.850Z,98948.91
2018-01-06T02:25:48.303Z,98951.20
2018-01-06T02:28:15.799Z,98949.77
2018-01-06T02:30:43.267Z,98954.78
2018-01-06T02:33:10.721Z,98957.55
2018-01-06T02:35:38.207Z,98959.46
2018-01-06T02:38:05.663Z,98962.91
2018-01-06T02:40:33.148Z,98972.66
2018-01-06T02:43:00.619Z,98990.39
2018-01-06T02:45:28.100Z,98993.48
2018-01-06T02:47:55.563Z,98988.92
2018-01-06T02:50:23.329Z,98990.91
2018-01-06T02:52:50.787Z,98994.87
2018-01-06T02:55:18.275Z,98992.78
2018-01-06T02:57:45.741Z,98994.33
2018-01-06T03:00:13.215Z,98998.16
2018-01-06T03:02:40.677Z,99008.05
2018-01-06T03:05:08.175Z,99002.53
2018-01-06T03:07:35.666Z,98994.95
2018-01-06T03:10:03.126Z,98998.66
2018-01-06T03:12:31.546Z,99000.58
2018-01-06T03:14:59.000Z,98996.91
2018-01-06T03:17:26.493Z,98995.91
2018-01-06T03:19:53.979Z,99003.56
2018-01-06T03:22:21.442Z,98996.88
2018-01-06T03:24:48.902Z,98992.61
2018-01-06T03:27:16.379Z,98996.56
2018-01-06T03:29:43.844Z,98995.08
2018-01-06T03:32:11.316Z,98997.72
2018-01-06T03:34:38.774Z,98993.23
2018-01-06T03:37:06.273Z,98992.17
2018-01-06T03:39:33.727Z,98987.16
2018-01-06T03:42:01.259Z,98983.97
2018-01-06T03:44:28.711Z,98985.13
2018-01-06T03:46:56.195Z,98984.66
2018-01-06T03:49:23.650Z,98979.81
2018-01-06T03:51:51.102Z,98979.61
2018-01-06T03:54:19.471Z,98976.34
2018-01-06T03:56:46.961Z,98985.72
2018-01-06T03:59:14.444Z,98986.43
2018-01-06T04:01:41.898Z,98983.04
2018-01-06T04:04:09.403Z,98987.67
2018-01-06T04:06:36.888Z,98995.42
2018-01-06T04:09:04.367Z,99004.34
2018-01-06T04:11:31.838Z,98997.20
2018-01-06T04:13:59.314Z,98997.44
2018-01-06T04:16:26.770Z,98995.33
2018-01-06T04:18:54.246Z,98989.80
2018-01-06T04:21:21.703Z,98992.38
2018-01-06T04:23:49.216Z,99006.58
2018-01-06T04:26:16.680Z,99004.78
2018-01-06T04:28:44.138Z,99017.53
2018-01-06T04:31:11.606Z,99020.59
2018-01-06T04:33:39.063Z,99026.92
2018-01-06T04:36:06.527Z,99036.33
2018-01-06T04:38:33.979Z,99040.11
2018-01-06T04:41:01.443Z,99037.55
2018-01-06T04:43:28.903Z,99043.73
2018-01-06T04:45:56.387Z,99041.61
2018-01-06T04:48:23.843Z,99028.34
2018-01-06T04:50:51.314Z,99034.11
2018-01-06T04:53:18.777Z,99038.73
2018-01-06T04:55:46.259Z,99042.88
2018-01-06T04:58:13.710Z,99047.41
2018-01-06T05:00:41.167Z,99047.23
2018-01-06T05:03:08.647Z,99051.53
2018-01-06T05:05:36.108Z,99056.94
2018-01-06T05:08:03.587Z,99067.10
2018-01-06T05:10:31.045Z,99064.77
2018-01-06T05:12:58.524Z,99054.88
2018-01-06T05:15:25.975Z,99045.88
2018-01-06T05:17:53.487Z,99049.63
2018-01-06T05:20:20.938Z,99044.21
2018-01-06T05:22:48.422Z,99036.70
2018-01-06T05:25:15.879Z,99037.80
2018-01-06T05:27:43.350Z,99047.09
2018-01-06T05:30:10.811Z,99048.44
2018-01-06T05:32:38.299Z,99053.34
2018-01-06T05:35:05.754Z,99042.09
2018-01-06T05:37:33.206Z,99040.00
2018-01-06T05:40:00.696Z,99043.19
2018-01-06T05:42:28.242Z,99033.00
2018-01-06T05:44:55.788Z,99032.45
2018-01-06T05:47:23.243Z,99035.36
2018-01-06T05:49:50.719Z,99038.59
2018-01-06T05:52:18.172Z,99039.69
2018-01-06T05:54:45.644Z,99044.28
2018-01-06T05:57:13.091Z,99040.58
2018-01-06T05:59:40.567Z,99037.28
2018-01-06T06:02:08.031Z,99029.70
2018-01-06T06:04:35.511Z,99022.15
2018-01-06T06:07:02.959Z,99028.95
2018-01-06T06:09:30.436Z,99033.41
2018-01-06T06:11:57.896Z,99043.94
2018-01-06T06:14:25.360Z,99053.45
2018-01-06T06:16:52.833Z,99061.06
2018-01-06T06:19:20.279Z,99068.78
2018-01-06T06:21:47.750Z,99075.03
2018-01-06T06:24:15.208Z,99084.53
2018-01-06T06:26:42.683Z,99080.36
2018-01-06T06:29:10.147Z,99075.41
2018-01-06T06:31:37.689Z,99068.61
2018-01-06T06:34:05.122Z,99057.19
2018-01-06T06:36:32.612Z,99049.91
2018-01-06T06:39:00.072Z,99058.23
2018-01-06T06:41:27.603Z,99063.80
2018-01-06T06:43:55.062Z,99068.06
2018-01-06T06:46:22.521Z,99070.56
2018-01-06T06:48:49.995Z,99066.58
2018-01-06T06:51:17.454Z,99056.58
2018-01-06T06:53:44.927Z,99061.67
2018-01-06T06:56:12.379Z,99065.52
2018-01-06T06:58:39.847Z,99059.12
2018-01-06T07:01:07.303Z,99070.36
2018-01-06T07:03:34.787Z,99068.75
2018-01-06T07:06:02.239Z,99075.01
2018-01-06T07:08:29.727Z,99078.50
2018-01-06T07:10:57.188Z,99092.28
2018-01-06T07:13:24.680Z,99099.77
2018-01-06T07:15:52.147Z,99112.89
2018-01-06T07:18:19.601Z,99116.05
2018-01-06T07:20:47.083Z,99107.46
2018-01-06T07:23:14.544Z,99112.94
2018-01-06T07:25:42.026Z,99109.55
2018-01-06T07:28:09.483Z,99116.31
2018-01-06T07:30:36.958Z,99111.30
2018-01-06T07:33:04.424Z,99109.26
2018-01-06T07:35:31.914Z,99112.00
2018-01-06T07:37:59.378Z,99117.47
2018-01-06T07:40:26.868Z,99120.38
2018-01-06T07:42:54.333Z,99125.86
2018-01-06T07:45:21.822Z,99137.80
2018-01-06T07:47:49.279Z,99135.30
2018-01-06T07:50:16.731Z,99135.88
2018-01-06T07:52:44.219Z,99127.84
2018-01-06T07:55:11.770Z,99142.05
2018-01-06T07:57:39.253Z,99146.66
2018-01-06T08:00:06.715Z,99155.35
2018-01-06T08:02:34.195Z,99157.51
2018-01-06T08:05:01.659Z,99163.81
2018-01-06T08:07:29.127Z,99172.97
2018-01-06T08:09:56.584Z,99171.64
2018-01-06T08:12:24.067Z,99169.65
2018-01-06T08:14:51.522Z,99173.73
2018-01-06T08:17:19.007Z,99177.97
2018-01-06T08:19:46.467Z,99172.85
2018-01-06T08:22:13.915Z,99175.30
2018-01-06T08:24:41.387Z,99182.71
2018-01-06T08:27:08.843Z,99185.60
2018-01-06T08:29:36.322Z,99183.56
2018-01-06T08:32:03.790Z,99185.36
2018-01-06T08:34:31.275Z,99184.13
2018-01-06T08:36:58.736Z,99178.35
2018-01-06T08:39:26.219Z,99180.32
2018-01-06T08:41:53.688Z,99199.19
2018-01-06T08:44:21.182Z,99198.45
2018-01-06T08:46:48.641Z,99200.60
2018-01-06T08:49:16.137Z,99210.88
2018-01-06T08:51:43.586Z,99215.67
2018-01-06T08:54:11.054Z,99214.30
2018-01-06T08:56:38.832Z,99216.77
2018-01-06T08:59:06.346Z,99215.98
2018-01-06T09:01:33.809Z,99220.23
2018-01-06T09:04:01.261Z,99211.96
2018-01-06T09:06:28.730Z,99209.08
2018-01-06T09:08:56.182Z,99219.78
2018-01-06T09:11:23.659Z,99221.69
2018-01-06T09:13:51.110Z,99222.77
2018-01-06T09:16:18.591Z,99236.64
2018-01-06T09:18:46.047Z,99240.31
2018-01-06T09:21:13.763Z,99237.57
2018-01-06T09:23:41.206Z,99228.45
2018-01-06T09:26:08.684Z,99225.83
2018-01-06T09:28:36.140Z,99220.55
2018-01-06T09:31:03.804Z,99223.50
2018-01-06T09:33:31.268Z,99234.45
2018-01-06T09:35:58.747Z,99246.95
2018-01-06T09:38:26.199Z,99250.31
2018-01-06T09:40:53.679Z,99242.30
2018-01-06T09:43:21.129Z,99247.31
2018-01-06T09:45:48.608Z,99244.77
2018-01-06T09:48:16.064Z,99243.94
2018-01-06T09:50:43.551Z,99250.88
2018-01-06T09:53:11.008Z,99248.89
2018-01-06T09:55:38.491Z,99244.20
2018-01-06T09:58:05.947Z,99253.55
2018-01-06T10:00:33.427Z,99255.98
2018-01-06T10:03:00.887Z,99251.83
2018-01-06T10:05:28.362Z,99263.10
2018-01-06T10:07:55.851Z,99266.59
2018-01-06T10:10:23.372Z,99270.37
2018-01-06T10:12:50.827Z,99268.11
2018-01-06T10:15:18.303Z,99269.81
2018-01-06T10:17:45.771Z,99270.49
2018-01-06T10:20:13.270Z,99283.00
2018-01-06T10:22:40.732Z,99280.12
2018-01-06T10:25:08.187Z,99283.00
2018-01-06T10:27:35.660Z,99293.95
2018-01-06T10:30:03.127Z,99285.54
2018-01-06T10:32:30.595Z,99300.55
2018-01-06T10:34:58.047Z,99294.98
2018-01-06T10:37:25.536Z,99299.41
2018-01-06T10:39:52.992Z,99297.25
2018-01-06T10:42:20.478Z,99301.62
2018-01-06T10:44:47.931Z,99298.33
2018-01-06T10:47:15.416Z,99302.13
2018-01-06T10:49:42.890Z,99293.47
2018-01-06T10:52:10.384Z,99288.70
2018-01-06T10:54:37.880Z,99294.72
2018-01-06T10:57:05.355Z,99299.46
2018-01-06T10:59:32.808Z,99289.52
2018-01-06T11:02:05.703Z,99294.80
2018-01-06T11:04:33.167Z,99295.13
2018-01-06T11:07:00.642Z,99298.05
2018-01-06T11:09:28.114Z,99300.09
2018-01-06T11:11:55.595Z,99302.74
2018-01-06T11:14:23.055Z,99302.66
2018-01-06T11:16:50.522Z,99305.39
2018-01-06T11:19:17.996Z,99310.78
2018-01-06T11:21:45.475Z,99301.89
2018-01-06T11:24:12.930Z,99308.14
2018-01-06T11:26:40.403Z,99306.99
2018-01-06T11:29:07.864Z,99303.19
2018-01-06T11:31:35.337Z,99302.26
2018-01-06T11:34:02.787Z,99298.66
2018-01-06T11:36:30.261Z,99304.77
2018-01-06T11:38:57.723Z,99301.73
2018-01-06T11:41:25.194Z,99298.07
2018-01-06T11:43:52.648Z,99297.05
2018-01-06T11:46:20.143Z,99306.22
2018-01-06T11:48:47.595Z,99306.61
2018-01-06T11:51:15.059Z,99312.17
2018-01-06T11:53:42.534Z,99319.19
2018-01-06T11:56:09.991Z,99316.09
2018-01-06T11:58:37.476Z,99314.98
2018-01-06T12:01:04.935Z,99323.23
2018-01-06T12:03:32.419Z,99319.69
2018-01-06T12:05:59.868Z,99333.69
2018-01-06T12:08:27.339Z,99331.47
2018-01-06T12:10:54.803Z,99334.21
2018-01-06T12:13:22.281Z,99327.34
2018-01-06T12:15:49.737Z,99319.14
2018-01-06T12:18:17.205Z,99330.66
2018-01-06T12:20:44.671Z,99327.61
2018-01-06T12:23:12.163Z,99330.86
2018-01-06T12:25:39.615Z,99330.55
2018-01-06T12:28:07.087Z,99327.41
2018-01-06T12:30:34.542Z,99320.52
2018-01-06T12:33:02.011Z,99323.98
2018-01-06T12:35:29.455Z,99326.95
2018-01-06T12:37:56.932Z,99332.00
2018-01-06T12:40:24.384Z,99330.00
2018-01-06T12:42:51.884Z,99337.82
2018-01-06T12:45:19.343Z,99336.98
2018-01-06T12:47:46.823Z,99335.50
2018-01-06T12:50:14.283Z,99339.74
2018-01-06T12:52:41.765Z,99339.83
2018-01-06T12:55:09.226Z,99341.20
2018-01-06T12:57:36.696Z,99339.35
2018-01-06T13:00:04.152Z,99346.36
2018-01-06T13:02:31.641Z,99356.13
2018-01-06T13:04:59.106Z,99365.58
2018-01-06T13:07:26.590Z,99360.29
2018-01-06T13:09:54.519Z,99367.94
2018-01-06T13:12:21.981Z,99367.67
2018-01-06T13:14:49.450Z,99366.73
2018-01-06T13:17:16.906Z,99363.83
2018-01-06T13:19:44.390Z,99360.98
2018-01-06T13:22:11.851Z,99361.00
2018-01-06T13:24:39.338Z,99365.44
2018-01-06T13:27:06.831Z,99365.32
2018-01-06T13:29:34.332Z,99378.23
2018-01-06T13:32:01.783Z,99370.79
2018-01-06T13:34:29.259Z,99376.66
2018-01-06T13:36:56.711Z,99379.77
2018-01-06T13:39:24.188Z,99386.73
2018-01-06T13:41:51.647Z,99395.35
2018-01-06T13:44:19.120Z,99395.65
2018-01-06T13:46:46.591Z,99398.99
2018-01-06T13:49:14.071Z,99396.84
2018-01-06T13:51:41.527Z,99403.39
2018-01-06T13:54:09.939Z,99408.94
2018-01-06T13:56:37.400Z,99413.90
2018-01-06T13:59:04.883Z,99411.08
2018-01-06T14:01:32.347Z,99413.63
2018-01-06T14:03:59.830Z,99413.28
2018-01-06T14:06:27.291Z,99422.88
2018-01-06T14:08:54.759Z,99422.33
2018-01-06T14:11:22.211Z,99418.80
2018-01-06T14:13:49.679Z,99425.97
2018-01-06T14:16:17.131Z,99421.53
2018-01-06T14:18:44.631Z,99423.45
2018-01-06T14:21:12.084Z,99430.70
2018-01-06T14:23:39.570Z,99434.63
2018-01-06T14:26:07.034Z,99422.20
2018-01-06T14:28:34.524Z,99432.62
2018-01-06T14:31:01.981Z,99435.01
2018-01-06T14:33:29.446Z,99435.16
2018-01-06T14:35:56.938Z,99445.81
2018-01-06T14:38:24.392Z,99447.84
2018-01-06T14:40:51.875Z,99443.31
2018-01-06T14:43:19.343Z,99446.81
2018-01-06T14:45:46.835Z,99446.66
2018-01-06T14:48:14.295Z,99445.42
2018-01-06T14:50:41.770Z,99451.47
2018-01-06T14:53:09.242Z,99458.78
2018-01-06T14:55:36.727Z,99455.78
2018-01-06T14:58:04.447Z,99460.56
2018-01-06T15:00:31.931Z,99457.99
2018-01-06T15:02:59.407Z,99463.06
2018-01-06T15:05:26.886Z,99465.05
2018-01-06T15:07:54.351Z,99470.38
2018-01-06T15:10:21.833Z,99475.17
2018-01-06T15:12:49.291Z,99472.36
2018-01-06T15:15:16.776Z,99480.41
2018-01-06T15:17:44.246Z,99475.36
2018-01-06T15:20:11.722Z,99473.84
2018-01-06T15:22:39.185Z,99473.77
2018-01-06T15:25:06.707Z,99477.84
2018-01-06T15:27:35.187Z,99483.74
2018-01-06T15:30:02.682Z,99481.57
2018-01-06T15:32:30.151Z,99483.73
2018-01-06T15:34:57.650Z,99480.73
2018-01-06T15:37:25.116Z,99476.14
2018-01-06T15:39:52.607Z,99478.19
2018-01-06T15:42:20.079Z,99474.55
2018-01-06T15:44:47.564Z,99479.33
2018-01-06T15:47:15.040Z,99487.91
2018-01-06T15:49:42.537Z,99491.43
2018-01-06T15:52:10.011Z,99496.91
2018-01-06T15:54:37.475Z,99493.26
2018-01-06T15:57:04.963Z,99499.42
2018-01-06T15:59:32.422Z,99495.77
2018-01-06T16:01:59.904Z,99501.09
2018-01-06T16:04:27.366Z,99505.29
2018-01-06T16:06:54.838Z,99510.47
2018-01-06T16:09:22.307Z,99508.64
2018-01-06T16:11:49.783Z,99517.40
2018-01-06T16:14:17.239Z,99521.59
2018-01-06T16:16:46.647Z,99521.73
2018-01-06T16:19:14.109Z,99526.27
2018-01-06T16:21:41.587Z,99527.19
2018-01-06T16:24:09.047Z,99527.70
2018-01-06T16:26:36.542Z,99535.86
2018-01-06T16:29:04.001Z,99536.21
2018-01-06T16:31:31.504Z,99543.52
2018-01-06T16:33:58.982Z,99547.52
2018-01-06T16:36:26.469Z,99543.86
2018-01-06T16:38:53.933Z,99546.73
2018-01-06T16:41:21.410Z,99538.03
2018-01-06T16:43:48.882Z,99545.05
2018-01-06T16:46:17.378Z,99553.48
2018-01-06T16:48:44.858Z,99560.20
2018-01-06T16:51:12.351Z,99563.30
2018-01-06T16:53:39.829Z,99572.06
2018-01-06T16:56:07.325Z,99577.25
2018-01-06T16:58:34.795Z,99577.20
2018-01-06T17:01:02.284Z,99580.59
2018-01-06T17:03:29.758Z,99592.36
2018-01-06T17:05:57.244Z,99596.59
2018-01-06T17:08:24.707Z,99602.85
2018-01-06T17:10:52.203Z,99601.17
2018-01-06T17:13:19.701Z,99603.65
2018-01-06T17:15:47.168Z,99605.27
2018-01-06T17:18:14.656Z,99599.55
2018-01-06T17:20:42.135Z,99599.74
2018-01-06T17:23:09.615Z,99600.95
2018-01-06T17:25:37.084Z,99607.23
2018-01-06T17:28:04.566Z,99601.42
2018-01-06T17:30:32.032Z,99596.37
2018-01-06T17:32:59.511Z,99597.48
2018-01-06T17:35:26.975Z,99608.86
2018-01-06T17:37:54.455Z,99608.50
2018-01-06T17:40:21.939Z,99619.50
2018-01-06T17:42:49.430Z,99619.98
2018-01-06T17:45:16.899Z,99629.27
2018-01-06T17:47:44.427Z,99640.17
2018-01-06T17:50:11.891Z,99646.30
2018-01-06T17:52:40.316Z,99651.88
2018-01-06T17:55:07.801Z,99656.73
2018-01-06T17:57:35.295Z,99661.44
2018-01-06T18:00:02.755Z,99677.08
2018-01-06T18:02:30.252Z,99680.30
2018-01-06T18:04:57.720Z,99685.32
2018-01-06T18:07:25.200Z,99686.61
2018-01-06T18:09:53.639Z,99687.27
2018-01-06T18:12:21.134Z,99685.45
2018-01-06T18:14:48.601Z,99680.70
2018-01-06T18:17:16.706Z,99683.68
2018-01-06T18:19:44.165Z,99692.25
2018-01-06T18:22:11.650Z,99691.42
2018-01-06T18:24:39.120Z,99696.65
2018-01-06T18:27:06.606Z,99710.56
2018-01-06T18:29:34.098Z,99711.73
2018-01-06T18:32:01.615Z,99711.02
2018-01-06T18:34:30.034Z,99717.77
2018-01-06T18:36:57.519Z,99724.36
2018-01-06T18:39:25.000Z,99726.70
2018-01-06T18:41:52.471Z,99728.13
2018-01-06T18:44:19.954Z,99731.09
2018-01-06T18:46:47.419Z,99737.72
2018-01-06T18:49:14.901Z,99740.39
2018-01-06T18:51:42.364Z,99743.38
2018-01-06T18:54:09.842Z,99751.91
2018-01-06T18:56:37.312Z,99754.98
2018-01-06T18:59:04.795Z,99757.76
2018-01-06T19:01:32.251Z,99763.20
2018-01-06T19:03:59.731Z,99768.05
2018-01-06T19:06:27.187Z,99766.66
2018-01-06T19:08:54.710Z,99769.47
2018-01-06T19:11:22.168Z,99771.58
2018-01-06T19:13:49.666Z,99768.02
2018-01-06T19:16:17.187Z,99774.20
2018-01-06T19:18:44.663Z,99774.90
2018-01-06T19:21:12.136Z,99783.34
2018-01-06T19:23:39.610Z,99779.35
2018-01-06T19:26:07.076Z,99782.45
2018-01-06T19:28:34.560Z,99783.16
2018-01-06T19:31:02.031Z,99785.34
2018-01-06T19:33:29.506Z,99782.58
2018-01-06T19:35:56.976Z,99786.73
2018-01-06T19:38:24.452Z,99790.70
2018-01-06T19:40:51.906Z,99795.34
2018-01-06T19:43:19.390Z,99799.61
2018-01-06T19:45:46.846Z,99804.48
2018-01-06T19:48:14.324Z,99806.98
2018-01-06T19:50:41.786Z,99807.39
2018-01-06T19:53:09.271Z,99821.27
2018-01-06T19:55:36.743Z,99811.91
2018-01-06T19:58:05.230Z,99822.34
2018-01-06T20:00:32.687Z,99826.25
2018-01-06T20:03:00.142Z,99834.03
2018-01-06T20:05:27.627Z,99833.55
2018-01-06T20:07:55.092Z,99838.69
2018-01-06T20:10:22.578Z,99835.53
2018-01-06T20:12:50.044Z,99842.19
2018-01-06T20:15:17.535Z,99840.50
2018-01-06T20:17:45.004Z,99848.87
2018-01-06T20:20:12.488Z,99854.20
2018-01-06T20:22:39.954Z,99854.61
2018-01-06T20:25:07.443Z,99866.17
2018-01-06T20:27:34.928Z,99861.09
2018-01-06T20:30:02.451Z,99862.78
2018-01-06T20:32:29.917Z,99864.36
2018-01-06T20:34:57.399Z,99873.98
2018-01-06T20:37:24.867Z,99881.13
2018-01-06T20:39:52.355Z,99881.50
2018-01-06T20:42:19.831Z,99878.60
2018-01-06T20:44:47.952Z,99886.87
2018-01-06T20:47:16.427Z,99892.79
2018-01-06T20:49:43.935Z,99889.25
2018-01-06T20:52:11.404Z,99899.27
2018-01-06T20:54:42.883Z,99909.86
2018-01-06T20:57:10.343Z,99907.86
2018-01-06T20:59:37.836Z,99913.85
2018-01-06T21:02:05.304Z,99916.33
2018-01-06T21:04:32.797Z,99918.63
2018-01-06T21:07:00.275Z,99926.78
2018-01-06T21:09:27.771Z,99924.55
2018-01-06T21:11:55.231Z,99925.67
2018-01-06T21:14:22.727Z,99918.73
2018-01-06T21:16:50.192Z,99926.56
2018-01-06T21:19:17.678Z,99927.80
2018-01-06T21:21:45.159Z,99931.95
2018-01-06T21:24:12.645Z,99939.45
2018-01-06T21:26:40.132Z,99940.77
2018-01-06T21:29:07.607Z,99942.83
2018-01-06T21:31:35.088Z,99945.59
2018-01-06T21:34:02.556Z,99939.27
2018-01-06T21:36:30.036Z,99946.66
2018-01-06T21:38:57.498Z,99949.90
2018-01-06T21:41:24.991Z,99953.64
2018-01-06T21:43:52.451Z,99958.55
2018-01-06T21:46:19.949Z,99960.76
2018-01-06T21:48:47.413Z,99970.91
2018-01-06T21:51:14.894Z,99975.40
2018-01-06T21:53:42.357Z,99983.79
2018-01-06T21:56:09.840Z,99980.95
2018-01-06T21:58:37.295Z,99980.25
2018-01-06T22:01:04.782Z,99990.52
2018-01-06T22:03:32.238Z,99988.03
2018-01-06T22:05:59.727Z,99991.00
2018-01-06T22:08:27.208Z,99995.91
2018-01-06T22:10:54.676Z,99996.95
2018-01-06T22:13:22.173Z,100001.98
2018-01-06T22:15:49.652Z,100001.81
2018-01-06T22:18:17.146Z,100015.04
2018-01-06T22:20:44.611Z,100009.76
2018-01-06T22:23:12.092Z,100015.39
2018-01-06T22:25:39.568Z,100017.94
2018-01-06T22:28:07.073Z,100027.58
2018-01-06T22:30:34.541Z,100032.20
2018-01-06T22:33:02.044Z,100032.38
2018-01-06T22:35:29.517Z,100034.55
2018-01-06T22:37:57.005Z,100034.83
2018-01-06T22:40:24.491Z,100041.48
2018-01-06T22:42:51.962Z,100041.10
2018-01-06T22:45:19.471Z,100036.13
2018-01-06T22:47:46.948Z,100035.02
2018-01-06T22:50:14.439Z,100036.27
2018-01-06T22:52:41.896Z,100042.48
2018-01-06T22:55:09.391Z,100038.20
2018-01-06T22:57:36.857Z,100042.73
2018-01-06T23:00:04.340Z,100043.10
2018-01-06T23:02:31.817Z,100050.00
2018-01-06T23:04:59.304Z,100054.66
2018-01-06T23:07:26.781Z,100054.07
2018-01-06T23:09:54.242Z,100067.12
2018-01-06T23:12:21.726Z,100068.94
2018-01-06T23:14:49.194Z,100068.78
2018-01-06T23:17:16.683Z,100070.49
2018-01-06T23:19:44.159Z,100072.98
2018-01-06T23:22:11.652Z,100075.95
2018-01-06T23:24:39.120Z,100075.70
2018-01-06T23:27:06.606Z,100081.01
2018-01-06T23:29:34.074Z,100080.25
2018-01-06T23:32:01.567Z,100077.62
2018-01-06T23:34:29.036Z,100078.73
2018-01-06T23:36:56.530Z,100081.27
2018-01-06T23:39:23.997Z,100087.48
2018-01-06T23:41:51.472Z,100088.83
2018-01-06T23:44:18.962Z,100084.69
2018-01-06T23:46:46.443Z,100094.22
2018-01-06T23:49:13.931Z,100089.47
2018-01-06T23:51:41.398Z,100100.66
2018-01-06T23:54:08.882Z,100100.53
2018-01-06T23:56:36.349Z,100108.73
2018-01-06T23:59:03.839Z,100113.30
